createdAt,value
2022-10-10T00:02:54.617Z,13.40
2022-10-10T00:05:57.541Z,13.40
2022-10-10T00:09:00.527Z,13.50
2022-10-10T00:12:03.435Z,13.40
2022-10-10T00:15:07.298Z,13.50
2022-10-10T00:18:11.505Z,13.40
2022-10-10T00:21:14.697Z,13.50
2022-10-10T00:24:17.622Z,13.50
2022-10-10T00:27:20.712Z,13.50
2022-10-10T00:30:23.572Z,13.50
2022-10-10T00:33:27.812Z,13.60
2022-10-10T00:36:30.671Z,13.50
2022-10-10T00:39:33.600Z,13.60
2022-10-10T00:42:36.486Z,13.50
2022-10-10T00:45:41.163Z,13.60
2022-10-10T00:48:46.823Z,13.60
2022-10-10T00:51:52.672Z,13.60
2022-10-10T00:54:55.553Z,13.60
2022-10-10T00:57:59.137Z,13.60
2022-10-10T01:01:02.098Z,13.70
2022-10-10T01:04:06.717Z,13.60
2022-10-10T01:07:12.706Z,13.60
2022-10-10T01:10:18.579Z,13.60
2022-10-10T01:13:31.545Z,13.70
2022-10-10T01:16:42.342Z,13.70
2022-10-10T01:20:22.492Z,13.70
2022-10-10T01:24:00.267Z,13.70
2022-10-10T01:27:19.375Z,13.70
2022-10-10T01:30:25.305Z,13.70
2022-10-10T01:33:33.969Z,13.70
2022-10-10T01:36:44.563Z,13.60
2022-10-10T01:40:01.395Z,13.50
2022-10-10T01:43:07.942Z,13.40
2022-10-10T01:46:13.704Z,13.30
2022-10-10T01:49:17.015Z,13.40
2022-10-10T01:52:33.826Z,13.40
2022-10-10T01:55:54.988Z,13.40
2022-10-10T01:59:23.179Z,13.40
2022-10-10T02:02:37.665Z,13.50
2022-10-10T02:05:45.257Z,13.40
2022-10-10T02:08:52.736Z,13.30
2022-10-10T02:11:57.793Z,13.30
2022-10-10T02:15:08.090Z,13.50
2022-10-10T02:18:15.718Z,13.50
2022-10-10T02:21:19.633Z,13.50
2022-10-10T02:24:24.033Z,13.60
2022-10-10T02:27:33.715Z,13.50
2022-10-10T02:30:39.347Z,13.60
2022-10-10T02:33:47.333Z,13.70
2022-10-10T02:36:53.491Z,13.60
2022-10-10T02:40:02.391Z,13.60
2022-10-10T02:43:07.999Z,13.70
2022-10-10T02:46:14.691Z,13.70
2022-10-10T02:49:24.181Z,13.80
2022-10-10T02:52:27.052Z,13.90
2022-10-10T02:55:30.140Z,13.90
2022-10-10T02:58:33.298Z,13.90
2022-10-10T03:01:36.141Z,13.90
2022-10-10T03:04:40.760Z,13.90
2022-10-10T03:07:43.600Z,13.80
2022-10-10T03:10:56.573Z,13.80
2022-10-10T03:13:59.634Z,13.90
2022-10-10T03:17:02.490Z,13.90
2022-10-10T03:20:08.634Z,13.90
2022-10-10T03:23:11.460Z,13.90
2022-10-10T03:26:14.355Z,13.90
2022-10-10T03:29:17.596Z,13.90
2022-10-10T03:32:20.435Z,13.90
2022-10-10T03:35:24.626Z,13.90
2022-10-10T03:38:27.646Z,13.90
2022-10-10T03:41:30.519Z,13.80
2022-10-10T03:44:33.428Z,13.80
2022-10-10T03:47:36.251Z,13.70
2022-10-10T03:50:40.837Z,13.80
2022-10-10T03:53:43.724Z,13.80
2022-10-10T03:56:46.917Z,13.80
2022-10-10T03:59:50.048Z,13.80
2022-10-10T04:02:53.735Z,13.80
2022-10-10T04:05:58.361Z,13.90
2022-10-10T04:09:01.280Z,13.80
2022-10-10T04:12:04.554Z,13.70
2022-10-10T04:15:08.429Z,13.30
2022-10-10T04:18:11.452Z,13.30
2022-10-10T04:21:15.732Z,13.40
2022-10-10T04:24:18.640Z,13.40
2022-10-10T04:27:21.776Z,13.50
2022-10-10T04:30:24.655Z,13.60
2022-10-10T04:33:27.497Z,13.60
2022-10-10T04:36:31.930Z,13.50
2022-10-10T04:39:34.868Z,13.60
2022-10-10T04:42:37.699Z,13.60
2022-10-10T04:45:41.123Z,13.60
2022-10-10T07:18:52.139Z,14.10
2022-10-10T07:21:55.061Z,14.10
2022-10-10T07:24:59.299Z,14.10
2022-10-10T07:28:02.234Z,14.20
2022-10-10T07:31:07.203Z,14.20
2022-10-10T07:34:10.143Z,14.20
2022-10-10T07:37:13.075Z,14.30
2022-10-10T07:40:17.381Z,14.30
2022-10-10T07:43:20.321Z,14.30
2022-10-10T07:46:24.365Z,14.40
2022-10-10T07:49:27.427Z,14.40
2022-10-10T07:52:30.526Z,14.40
2022-10-10T07:55:34.958Z,14.40
2022-10-10T07:58:38.310Z,14.50
2022-10-10T08:01:41.363Z,14.50
2022-10-10T08:04:44.277Z,14.60
2022-10-10T08:07:47.192Z,14.60
2022-10-10T08:10:51.416Z,14.60
2022-10-10T08:13:54.484Z,14.60
2022-10-10T08:16:57.339Z,14.50
2022-10-10T08:20:00.241Z,14.60
2022-10-10T08:23:03.130Z,14.70
2022-10-10T08:26:09.749Z,14.90
2022-10-10T08:29:12.661Z,14.90
2022-10-10T08:32:15.730Z,15.00
2022-10-10T08:35:18.684Z,15.00
2022-10-10T08:38:21.998Z,15.00
2022-10-10T08:41:35.811Z,15.10
2022-10-10T08:44:42.193Z,15.20
2022-10-10T08:47:50.448Z,15.30
2022-10-10T08:50:59.225Z,15.40
2022-10-10T08:54:06.890Z,15.50
2022-10-10T08:57:23.649Z,15.70
2022-10-10T09:00:32.975Z,15.70
2022-10-10T09:03:40.557Z,15.80
2022-10-10T09:06:58.380Z,15.90
2022-10-10T09:10:09.606Z,16.00
2022-10-10T09:13:25.821Z,16.10
2022-10-10T09:16:39.367Z,16.30
2022-10-10T09:19:48.553Z,16.30
2022-10-10T09:22:55.790Z,16.40
2022-10-10T09:26:03.116Z,16.50
2022-10-10T09:29:25.731Z,16.60
2022-10-10T09:32:34.931Z,16.60
2022-10-10T09:35:42.371Z,16.80
2022-10-10T09:38:50.145Z,16.80
2022-10-10T10:06:35.904Z,17.50
2022-10-10T10:09:39.457Z,17.60
2022-10-10T10:12:44.657Z,17.60
2022-10-10T10:15:53.497Z,17.80
2022-10-10T10:18:56.516Z,18.00
2022-10-10T10:21:59.467Z,18.20
2022-10-10T10:25:33.559Z,18.40
2022-10-10T10:28:42.537Z,18.50
2022-10-10T10:31:55.534Z,18.60
2022-10-10T10:35:13.432Z,18.70
2022-10-10T10:38:27.069Z,18.50
2022-10-10T10:41:34.694Z,18.50
2022-10-10T10:44:43.561Z,18.40
2022-10-10T10:47:59.874Z,18.40
2022-10-10T10:51:13.977Z,18.60
2022-10-10T10:54:30.020Z,18.60
2022-10-10T10:58:00.087Z,18.70
2022-10-10T11:01:24.163Z,18.80
2022-10-10T11:05:17.481Z,18.90
2022-10-10T11:08:29.382Z,19.00
2022-10-10T11:11:43.296Z,19.00
2022-10-10T11:14:56.499Z,19.00
2022-10-10T11:18:05.059Z,19.10
2022-10-10T11:21:14.011Z,19.00
2022-10-10T11:24:23.935Z,19.10
2022-10-10T11:27:33.940Z,19.20
2022-10-10T11:30:42.090Z,19.20
2022-10-10T11:33:48.466Z,19.30
2022-10-10T11:36:55.589Z,19.40
2022-10-10T11:40:02.081Z,19.40
2022-10-10T11:43:12.101Z,19.40
2022-10-10T11:46:22.679Z,19.20
2022-10-10T11:49:31.380Z,19.30
2022-10-10T11:52:40.958Z,19.40
2022-10-10T11:55:53.158Z,19.50
2022-10-10T11:59:01.437Z,19.60
2022-10-10T12:02:17.395Z,19.50
2022-10-10T12:05:23.317Z,19.40
2022-10-10T12:08:36.089Z,19.50
2022-10-10T12:11:43.665Z,19.50
2022-10-10T12:14:53.954Z,19.40
2022-10-10T12:17:57.608Z,19.40
2022-10-10T12:21:07.341Z,19.40
2022-10-10T12:24:14.007Z,19.60
2022-10-10T12:27:43.763Z,19.80
2022-10-10T12:31:20.366Z,19.90
2022-10-10T12:34:43.084Z,19.90
2022-10-10T12:38:11.951Z,19.90
2022-10-10T12:41:17.219Z,19.70
2022-10-10T12:44:22.335Z,19.80
2022-10-10T12:48:03.955Z,19.80
2022-10-10T12:51:07.325Z,19.80
2022-10-10T12:54:24.398Z,19.80
2022-10-10T12:57:33.393Z,19.90
2022-10-10T13:00:40.321Z,19.80
2022-10-10T13:03:46.115Z,19.80
2022-10-10T13:06:52.727Z,19.70
2022-10-10T13:10:04.823Z,19.70
2022-10-10T13:13:18.781Z,19.60
2022-10-10T13:16:23.299Z,19.60
2022-10-10T13:19:26.499Z,19.60
2022-10-10T13:22:31.051Z,19.70
2022-10-10T13:25:35.183Z,19.80
2022-10-10T13:28:39.459Z,19.60
2022-10-10T13:31:43.753Z,19.80
2022-10-10T13:34:49.822Z,19.90
2022-10-10T13:37:55.634Z,20.00
2022-10-10T13:40:58.747Z,20.00
2022-10-10T13:44:03.100Z,20.00
2022-10-10T13:47:39.495Z,20.00
2022-10-10T13:50:57.469Z,20.10
2022-10-10T13:54:00.456Z,20.10
2022-10-10T13:57:04.411Z,20.00
2022-10-10T14:00:17.511Z,20.00
2022-10-10T14:03:22.065Z,20.10
2022-10-10T14:06:28.289Z,20.10
2022-10-10T14:09:35.318Z,20.10
2022-10-10T14:12:42.727Z,20.10
2022-10-10T14:15:48.020Z,20.10
2022-10-10T14:18:51.225Z,20.10
2022-10-10T14:21:54.175Z,20.10
2022-10-10T14:24:57.052Z,20.10
2022-10-10T14:27:59.981Z,20.10
2022-10-10T14:31:04.721Z,20.20
2022-10-10T14:34:09.898Z,20.10
2022-10-10T14:37:18.267Z,20.10
2022-10-10T14:40:23.256Z,20.10
2022-10-10T14:43:26.174Z,20.10
2022-10-10T14:46:30.572Z,20.10
2022-10-10T14:49:33.730Z,20.00
2022-10-10T14:52:36.587Z,20.00
2022-10-10T14:55:43.135Z,20.00
2022-10-10T14:58:46.139Z,20.00
2022-10-10T15:01:50.374Z,20.00
2022-10-10T15:04:53.521Z,20.00
2022-10-10T15:07:56.357Z,20.00
2022-10-10T15:10:59.486Z,20.00
2022-10-10T15:14:02.712Z,20.00
2022-10-10T15:17:07.003Z,19.90
2022-10-10T15:20:12.759Z,19.90
2022-10-10T15:23:15.676Z,19.90
2022-10-10T15:26:18.629Z,19.90
2022-10-10T15:29:21.501Z,19.90
2022-10-10T15:32:26.198Z,19.90
2022-10-10T15:35:44.620Z,19.90
2022-10-10T15:38:52.276Z,19.90
2022-10-10T15:41:55.319Z,19.80
2022-10-10T15:44:58.197Z,19.80
2022-10-10T15:48:02.400Z,19.80
2022-10-10T15:51:07.672Z,19.80
2022-10-10T15:54:10.659Z,19.80
2022-10-10T15:57:18.275Z,19.80
2022-10-10T16:00:21.604Z,19.80
2022-10-10T16:03:25.878Z,19.80
2022-10-10T16:06:28.798Z,19.80
2022-10-10T16:09:31.707Z,19.70
2022-10-10T16:12:34.635Z,19.70
2022-10-10T16:15:37.769Z,19.70
2022-10-10T16:18:43.104Z,19.60
2022-10-10T16:21:46.097Z,19.60
2022-10-10T16:25:04.043Z,19.60
2022-10-10T16:28:12.188Z,19.60
2022-10-10T16:31:17.327Z,19.50
2022-10-10T16:34:21.524Z,19.50
2022-10-10T16:37:24.519Z,19.50
2022-10-10T16:40:27.856Z,19.40
2022-10-10T16:43:30.744Z,19.40
2022-10-10T16:46:34.129Z,19.40
2022-10-10T16:49:38.491Z,19.30
2022-10-10T16:52:41.618Z,19.30
2022-10-10T16:55:46.012Z,19.30
2022-10-10T16:58:50.635Z,19.30
2022-10-10T17:01:53.497Z,19.30
2022-10-10T17:04:58.255Z,19.30
2022-10-10T17:08:01.163Z,19.20
2022-10-10T17:11:04.707Z,19.20
2022-10-10T17:14:07.885Z,19.20
2022-10-10T17:17:12.836Z,19.10
2022-10-10T17:20:17.890Z,19.10
2022-10-10T17:23:20.804Z,19.10
2022-10-10T17:26:25.925Z,19.10
2022-10-10T17:29:28.820Z,19.10
2022-10-10T17:32:32.024Z,19.00
2022-10-10T17:35:40.100Z,19.00
2022-10-10T17:38:43.012Z,19.00
2022-10-10T17:41:49.118Z,19.00
2022-10-10T17:44:56.133Z,18.90
2022-10-10T17:47:59.269Z,18.90
2022-10-10T17:51:03.720Z,18.90
2022-10-10T17:54:09.988Z,18.90
2022-10-10T17:57:12.940Z,18.90
2022-10-10T18:00:16.327Z,18.90
2022-10-10T18:03:19.874Z,18.80
2022-10-10T18:06:24.493Z,18.80
2022-10-10T18:09:27.371Z,18.90
2022-10-10T18:12:30.494Z,18.80
2022-10-10T18:15:33.413Z,18.70
2022-10-10T18:18:36.504Z,18.70
2022-10-10T18:21:40.843Z,18.70
2022-10-10T18:24:43.833Z,18.60
2022-10-10T18:27:47.002Z,18.60
2022-10-10T18:30:50.060Z,18.50
2022-10-10T18:33:53.269Z,18.50
2022-10-10T18:36:57.561Z,18.40
2022-10-10T18:40:00.652Z,18.40
2022-10-10T18:43:03.689Z,18.30
2022-10-10T18:46:09.035Z,18.30
2022-10-10T18:49:13.551Z,18.30
2022-10-10T18:52:18.145Z,18.30
2022-10-10T18:55:21.356Z,18.20
2022-10-10T18:58:24.897Z,18.20
2022-10-10T19:01:29.274Z,18.10
2022-10-10T19:04:32.159Z,18.10
2022-10-10T19:07:36.360Z,18.10
2022-10-10T19:10:45.579Z,18.00
2022-10-10T19:13:48.533Z,18.00
2022-10-10T19:16:51.377Z,17.90
2022-10-10T19:19:54.253Z,17.90
2022-10-10T19:22:58.574Z,17.80
2022-10-10T19:26:03.700Z,17.80
2022-10-10T19:29:09.445Z,17.80
2022-10-10T19:32:12.407Z,17.80
2022-10-10T19:35:15.408Z,17.70
2022-10-10T19:38:19.643Z,17.70
2022-10-10T19:41:23.073Z,17.60
2022-10-10T19:44:26.004Z,17.60
2022-10-10T19:47:29.093Z,17.50
2022-10-10T19:50:32.224Z,17.50
2022-10-10T19:53:36.493Z,17.50
2022-10-10T19:56:39.429Z,17.40
2022-10-10T19:59:42.817Z,17.40
2022-10-10T20:02:45.728Z,17.40
2022-10-10T20:05:48.616Z,17.30
2022-10-10T20:08:52.849Z,17.30
2022-10-10T20:11:56.017Z,17.20
2022-10-10T20:15:00.007Z,17.20
2022-10-10T20:18:02.868Z,17.10
2022-10-10T20:21:16.300Z,17.10
2022-10-10T20:24:21.255Z,17.10
2022-10-10T20:27:28.858Z,17.10
2022-10-10T20:30:34.362Z,17.00
2022-10-10T20:33:37.462Z,17.00
2022-10-10T20:36:40.425Z,16.90
2022-10-10T20:39:44.747Z,16.90
2022-10-10T20:42:47.616Z,16.90
2022-10-10T20:45:50.493Z,16.80
2022-10-10T20:48:54.997Z,16.80
2022-10-10T20:51:57.941Z,16.70
2022-10-10T20:55:02.390Z,16.70
2022-10-10T20:58:05.399Z,16.70
2022-10-10T21:01:10.527Z,16.70
2022-10-10T21:04:14.942Z,16.70
2022-10-10T21:07:17.915Z,16.60
2022-10-10T21:10:22.353Z,16.50
2022-10-10T21:13:25.313Z,16.50
2022-10-10T21:16:30.780Z,16.50
2022-10-10T21:19:33.656Z,16.40
2022-10-10T21:22:36.547Z,16.40
2022-10-10T21:25:41.711Z,16.30
2022-10-10T21:28:45.673Z,16.30
2022-10-10T21:31:48.581Z,16.30
2022-10-10T21:34:56.240Z,16.20
2022-10-10T21:38:00.568Z,16.20
2022-10-10T21:41:07.671Z,16.20
2022-10-10T21:44:11.909Z,16.20
2022-10-10T21:47:14.835Z,16.20
2022-10-10T21:50:18.075Z,16.20
2022-10-10T21:53:20.973Z,16.10
2022-10-10T21:56:25.797Z,16.00
2022-10-10T21:59:31.690Z,16.00
2022-10-10T22:02:34.788Z,16.00
2022-10-10T22:05:40.632Z,16.00
2022-10-10T22:08:44.703Z,16.00
2022-10-10T22:11:49.137Z,15.90
2022-10-10T22:14:52.171Z,15.90
2022-10-10T22:17:55.514Z,15.90
2022-10-10T22:20:58.986Z,15.90
2022-10-10T22:24:04.961Z,15.90
2022-10-10T22:27:09.287Z,15.80
2022-10-10T22:30:13.877Z,15.80
2022-10-10T22:33:16.902Z,15.80
2022-10-10T22:36:19.732Z,15.80
2022-10-10T22:39:22.604Z,15.80
2022-10-10T22:42:26.893Z,15.80
2022-10-10T22:45:30.172Z,15.70
2022-10-10T22:48:33.053Z,15.70
2022-10-10T22:51:35.959Z,15.70
2022-10-10T22:54:38.843Z,15.70
2022-10-10T22:57:43.055Z,15.70
2022-10-10T23:00:45.971Z,15.70
2022-10-10T23:03:49.178Z,15.70
2022-10-10T23:06:52.024Z,15.80
2022-10-10T23:09:54.910Z,15.80
2022-10-10T23:12:59.136Z,15.80
2022-10-10T23:16:02.406Z,15.80
2022-10-10T23:19:05.710Z,15.70
2022-10-10T23:22:08.652Z,15.70
2022-10-10T23:25:11.758Z,15.70
2022-10-10T23:28:17.351Z,15.70
2022-10-10T23:31:20.279Z,15.70
2022-10-10T23:34:23.171Z,15.70
2022-10-10T23:37:27.653Z,15.70
2022-10-10T23:40:31.396Z,15.70
2022-10-10T23:43:35.992Z,15.70
2022-10-10T23:46:38.997Z,15.70
2022-10-10T23:49:41.978Z,15.70
2022-10-10T23:52:44.932Z,15.60
2022-10-10T23:55:47.862Z,15.60
2022-10-10T23:58:52.237Z,15.60
